Hovedside
METAR-TAF:

METAR-TAF

Lufthavner :

Umeå lufthavn

Umeå, Sverige

breddegrad: 63-48N, lengdegrad: 020-17E, høyde over havet: 7 m

Gjeldene værobservasjon

Denne rapporten ble laget for 40 minutter siden, klokken 12:50 UTC
Vind 9 kt fra Sør
Temperatur 5°C
Luftfuktighet 60%
Trykk 1023 hPa
Sikt 10 km eller mer
ingen skyer under 1500 m og ingen bygeskyer

METAR: ESNU 221250Z 18009KT CAVOK 05/M02 Q1023 R14/09//60

Tid: 14:30 (13:30 UTC)

Varsel

Denne rapporten ble laget for 2 timer og 0 minutter siden, klokken 11:30 UTC
Varsel gyldig fra 22. klokken 12 UTC til 22. klokken 21 UTC
Vind 8 kt fra Sør-sørvest
Sikt 10 km eller mer
ingen skyer under 1500 m og ingen bygeskyer
Blir
fra 22. klokken 19 UTC til 22. klokken 21 UTC
Vind 15 kt fra Sør med vindkast opp mot 30 kt

TAF: ESNU 221130Z 2212/2221 20008KT CAVOK BECMG 2219/2221 19015G30KT

Værobservasjoner og værvarsel for over 4000 flyplasser (METAR- og TAF-rapporter).

Tilgjengelige stasjoner er representert av de røde og gule prikkene på kartet.

Hold musepekeren over prikken for å se navnet på stasjonen.

Klikk så for å se værobservasjoner og -varsler.

For å forandre kartet kan du klikke på den grønne knappen med svart kryss for å zoome inn, på den grønne knappen med strek for å zoome ut, eller på de grønne pilene for å se tilstøtende kart.


METAR-TAF: